Vindinge, Denmark
Current Conditions -  °F | °C
As of 7:20 PM on Thursday 29 Jan 2015 (Local Time) from EKRK Reporting Station
Snow Showers Snow Showers  
Wind Chill: 24°   Ceiling: 1200
Heat Index: 32°   Visibility: 1.3mi
Dew Point: 32°   Wind: 9mph
Humidity: 100%   Direction: 200°SSW
Pressure: 28.82"   Gusts: NA
Location:  55.62°N, 12.14°E
Report Text: EKRK 291820Z AUTO 20008KT 2200NDV SHSN BR SCT004/// BKN012///BKN018/// 00/00 Q0976
Loading
Personal Weather Stations






























Interactive Weather Map New forecast layout! Learn more

10-Day Weather Forecast

Advertisements
Track Severe Weather on mobile